Mount Airy, NC

11:24 AM EST on December 12, 2019 (GMT -0500)
Mount Airy-Surry County

Weather History for KMWK - October, 2019

Change the Weather History Date:

Thursday, October 3, 2019

  Actual Average (WUND) Record (WUND)
Temperature  
Mean Temperature 79 °F -  
Max Temperature 94 °F - - (-1)
Min Temperature 64 °F - - (-1)
Cooling Degree Days 14    
Growing Degree Days 29 (Base 50)    
Moisture  
Dew Point 65 °F    
Average Humidity 68    
Maximum Humidity 92    
Minimum Humidity 33    
Precipitation  
Precipitation 0.00 in - - ()
Sea Level Pressure  
Sea Level Pressure 30.05 in    
Wind  
Wind Speed 1 mph ()    
Max Wind Speed 7 mph    
Max Gust Speed -    
Visibility 9.7 miles    
Events      
Averages and records for this station are not official NWS values.
T = Trace of Precipitation, MM = Missing Value Source: Averaged Metar Reports

Daily Weather History Graph

Daily Weather History Graph

Search for Another Location

Airport or City:

Astronomy

Oct. 03, 2019 Rise Set
Actual Time 7:18 AM EDT 7:03 PM EDT
Civil Twilight 6:53 AM EDT 7:28 PM EDT
Nautical Twilight 6:23 AM EDT 7:58 PM EDT
Astronomical Twilight 5:53 AM EDT 8:28 PM EDT
Moon 12:40 PM EDT (10/3) 10:49 PM EDT (10/3)
Length of Visible Light 12h 35m
Length of Day
11h 44m
Waxing Crescent, 29% of the Moon is Illuminated
Oct 3
Waxing Crescent
Oct 5
First Quarter
Oct 13
Full
Oct 21
Last Quarter
Oct 27
New

Hourly Weather History & Observations

Time (EDT) Temp. Heat Index Dew Point Humidity Pressure Visibility Wind Dir Wind Speed Gust Speed Precip Events Conditions
12:15 AM 71.2 °F - 66.7 °F 86% 30.04 in 10.0 mi Calm Calm - N/A   Clear
12:35 AM 70.9 °F - 66.7 °F 87% 30.04 in 10.0 mi Calm Calm - N/A   Clear
12:55 AM 70.9 °F - 66.2 °F 85% 30.04 in 10.0 mi Calm Calm - N/A   Clear
1:15 AM 70.2 °F - 65.7 °F 86% 30.04 in 10.0 mi Calm Calm - N/A   Clear
1:35 AM 69.6 °F - 65.5 °F 87% 30.04 in 10.0 mi Calm Calm - N/A   Clear
1:55 AM 69.6 °F - 65.5 °F 87% 30.04 in 10.0 mi Calm Calm - N/A   Clear
2:15 AM 69.4 °F - 66.0 °F 89% 30.04 in 10.0 mi Calm Calm - N/A   Clear
2:35 AM 69.3 °F - 65.7 °F 88% 30.04 in 10.0 mi Calm Calm - N/A   Clear
2:55 AM 68.0 °F - 64.6 °F 89% 30.04 in 10.0 mi Calm Calm - N/A   Clear
3:15 AM 68.0 °F - 64.6 °F 89% 30.04 in 10.0 mi Calm Calm - N/A   Clear
3:35 AM 67.8 °F - 64.6 °F 89% 30.04 in 10.0 mi Calm Calm - N/A   Clear
3:55 AM 68.0 °F - 64.6 °F 89% 30.04 in 10.0 mi Calm Calm - N/A   Clear
4:15 AM 68.0 °F - 64.4 °F 88% 30.04 in 10.0 mi Calm Calm - N/A   Clear
4:35 AM 67.1 °F - 63.7 °F 89% 30.04 in 10.0 mi Calm Calm - N/A   Clear
4:55 AM 67.1 °F - 63.9 °F 89% 30.04 in 10.0 mi Calm Calm - N/A   Clear
5:15 AM 66.2 °F - 63.5 °F 91% 30.05 in 10.0 mi Calm Calm - N/A   Clear
5:35 AM 65.5 °F - 62.8 °F 91% 30.06 in 10.0 mi Calm Calm - N/A   Clear
5:55 AM 65.7 °F - 63.0 °F 91% 30.06 in 10.0 mi Calm Calm - N/A   Clear
6:15 AM 64.9 °F - 62.6 °F 92% 30.07 in 10.0 mi Calm Calm - N/A   Clear
6:35 AM 65.8 °F - 63.0 °F 90% 30.08 in 10.0 mi Calm Calm - N/A   Clear
6:55 AM 66.2 °F - 63.1 °F 90% 30.08 in 10.0 mi Calm Calm - N/A   Clear
7:15 AM 65.5 °F - 62.8 °F 91% 30.08 in 10.0 mi Calm Calm - N/A   Clear
7:35 AM 66.4 °F - 63.5 °F 90% 30.09 in 10.0 mi Calm Calm - N/A   Clear
7:55 AM 67.5 °F - 64.2 °F 89% 30.09 in 7.0 mi Calm Calm - N/A   Clear
8:15 AM 69.3 °F - 65.5 °F 88% 30.09 in 7.0 mi Calm Calm - N/A   Clear
8:35 AM 72.0 °F - 67.3 °F 85% 30.10 in 2.0 mi Calm Calm - N/A   Haze
8:55 AM 74.5 °F - 68.2 °F 81% 30.09 in 3.0 mi Calm Calm - N/A   Haze
9:15 AM 76.1 °F - 67.8 °F 75% 30.10 in 10.0 mi Calm Calm - N/A   Clear
9:35 AM 77.5 °F - 67.6 °F 71% 30.10 in 10.0 mi Calm Calm - N/A   Clear
9:55 AM 80.2 °F 83.0 °F 68.5 °F 67% 30.10 in 10.0 mi Calm Calm - N/A   Clear
10:15 AM 81.3 °F 83.8 °F 67.3 °F 62% 30.10 in 10.0 mi Calm Calm - N/A   Clear
10:35 AM 82.9 °F 85.8 °F 67.6 °F 60% 30.10 in 10.0 mi Calm Calm - N/A   Clear
10:55 AM 84.0 °F 87.3 °F 68.2 °F 59% 30.10 in 10.0 mi Calm Calm - N/A   Clear
11:15 AM 85.3 °F 89.4 °F 69.3 °F 59% 30.10 in 10.0 mi West 3.5 mph - N/A   Clear
11:35 AM 86.9 °F 91.0 °F 69.1 °F 55% 30.10 in 10.0 mi NW 3.5 mph - N/A   Clear
11:55 AM 88.0 °F 91.4 °F 68.0 °F 51% 30.09 in 10.0 mi Calm Calm - N/A   Clear
12:15 PM 89.1 °F 92.1 °F 66.9 °F 48% 30.08 in 10.0 mi Calm Calm - N/A   Clear
12:35 PM 90.1 °F 93.5 °F 67.3 °F 47% 30.08 in 10.0 mi West 3.5 mph - N/A   Clear
12:55 PM 91.4 °F 92.4 °F 63.1 °F 39% 30.07 in 10.0 mi NW 6.9 mph - N/A   Clear
1:15 PM 92.5 °F 94.1 °F 64.4 °F 39% 30.06 in 10.0 mi Calm Calm - N/A   Clear
1:35 PM 92.5 °F 93.3 °F 62.8 °F 37% 30.06 in 10.0 mi WSW 3.5 mph - N/A   Clear
1:55 PM 91.9 °F 92.9 °F 63.1 °F 38% 30.05 in 10.0 mi West 4.6 mph - N/A   Clear
2:15 PM 92.7 °F 93.2 °F 61.9 °F 36% 30.04 in 10.0 mi Calm Calm - N/A   Clear
2:35 PM 93.4 °F 93.5 °F 61.3 °F 34% 30.03 in 10.0 mi West 4.6 mph - N/A   Clear
2:55 PM 93.2 °F 94.1 °F 62.4 °F 36% 30.03 in 10.0 mi WSW 3.5 mph - N/A   Clear
3:15 PM 93.2 °F 93.7 °F 62.1 °F 35% 30.02 in 10.0 mi WSW 6.9 mph - N/A   Clear
3:35 PM 93.2 °F 94.1 °F 62.2 °F 36% 30.02 in 10.0 mi Calm Calm - N/A   Clear
3:55 PM 94.1 °F 95.5 °F 63.1 °F 36% 30.02 in 10.0 mi WSW 3.5 mph - N/A   Clear
4:15 PM 93.6 °F 94.2 °F 62.4 °F 35% 30.01 in 10.0 mi WSW 3.5 mph - N/A   Clear
4:35 PM 93.6 °F 94.2 °F 61.7 °F 35% 30.01 in 10.0 mi Calm Calm - N/A   Clear
4:55 PM 94.1 °F 94.2 °F 61.0 °F 33% 30.00 in 10.0 mi SW 4.6 mph - N/A   Clear
5:15 PM 93.4 °F 93.9 °F 62.2 °F 35% 30.01 in 10.0 mi SW 3.5 mph - N/A   Clear
5:35 PM 93.2 °F 94.5 °F 63.5 °F 37% 30.01 in 10.0 mi WSW 3.5 mph - N/A   Clear
5:55 PM 92.7 °F 94.0 °F 63.5 °F 38% 30.01 in 10.0 mi WSW 3.5 mph - N/A   Clear
6:15 PM 91.4 °F 92.1 °F 62.8 °F 38% 30.01 in 10.0 mi Calm Calm - N/A   Clear
6:35 PM 89.4 °F 90.8 °F 64.2 °F 43% 30.01 in 10.0 mi Calm Calm - N/A   Clear
6:55 PM 86.9 °F 88.1 °F 63.9 °F 46% 30.02 in 10.0 mi Calm Calm - N/A   Clear
7:15 PM 84.0 °F 86.3 °F 66.4 °F 55% 30.02 in 10.0 mi Calm Calm - N/A   Clear
7:35 PM 81.1 °F 84.0 °F 68.2 °F 65% 30.02 in 10.0 mi Calm Calm - N/A   Clear
7:55 PM 78.6 °F - 68.5 °F 71% 30.03 in 10.0 mi Calm Calm - N/A   Clear
8:15 PM 78.1 °F - 68.9 °F 73% 30.04 in 10.0 mi Calm Calm - N/A   Clear
8:35 PM 77.5 °F - 67.5 °F 71% 30.04 in 10.0 mi Calm Calm - N/A   Clear
8:55 PM 76.5 °F - 67.5 °F 74% 30.04 in 10.0 mi Calm Calm - N/A   Clear
9:15 PM 76.3 °F - 67.1 °F 73% 30.05 in 10.0 mi Calm Calm - N/A   Clear
9:35 PM 74.7 °F - 68.0 °F 80% 30.05 in 10.0 mi Calm Calm - N/A   Clear
9:55 PM 73.6 °F - 67.3 °F 81% 30.05 in 10.0 mi Calm Calm - N/A   Clear
10:15 PM 73.2 °F - 67.5 °F 82% 30.05 in 10.0 mi Calm Calm - N/A   Clear
10:35 PM 73.9 °F - 66.7 °F 78% 30.06 in 10.0 mi Calm Calm - N/A   Clear
10:55 PM 73.8 °F - 66.2 °F 77% 30.06 in 10.0 mi Calm Calm - N/A   Clear
11:15 PM 73.2 °F - 66.0 °F 78% 30.06 in 10.0 mi Calm Calm - N/A   Clear
11:35 PM 71.8 °F - 65.8 °F 81% 30.06 in 10.0 mi Calm Calm - N/A   Clear
11:55 PM 71.8 °F - 65.7 °F 81% 30.06 in 10.0 mi Calm Calm - N/A   Clear